Shaw Crest, New Jersey
Current Conditions -  °F | °C
As of 9:15 AM on Saturday 01 Nov 2014 (Local Time) from KWWD Reporting Station
Overcast Overcast  
Wind Chill: 42°   Ceiling: 1100
Heat Index: 48°   Visibility: 10mi
Dew Point: 43°   Wind: 16mph
Humidity: 82%   Direction: 360°N
Pressure: 29.71"   Gusts: 25mph
Location:  38.9808°N, 74.8281°W
Report Text: KWWD 011315Z AUTO 36014G22KT 10SM BKN011 OVC060 09/06 A2971 RMK AO1 LTG DSNT E
Loading
Personal Weather Stations






























Interactive Weather Map
Tropical Storm Tracking
New forecast layout! Learn more

10-Day Weather Forecast

Advertisements
Track Severe Weather on mobile